Capt. Elliot Crochet — WDI2218 — position and weather

sailwx.info

Track history (hours):
 
Tides and Currents Weather Stations Pressure Air Temp Water Temp Dewpoint Dewpoint Depression Visibility Wind Speed Wind Dir Waves Ship Positions

Capt. Elliot Crochet

Owner: CLM TOWING, LLC, MAURICEVILLE, TX. More information available from US FCC via Universal Licensing System and Coast Guard Vessel Documentation Center.

Last reported at 2018-Jul-23 00:00 UTC. Time now 2018-Jul-23 00:00 UTC.
Position N 29°59' W 093°53'.

Length 24 m; draft 2.7 m.

Type: Towing. MMSI: 367675880.

Date/timePositionNaut miles runAvg speedWind from/ knotsBaromVisibWave heightAir tempDewpointWater temp
2018-Jul-23 00:00N 29°59' W 093°53'0 0.0
2018-Jul-22 23:31N 29°59' W 093°53'0 0.0
2018-Jul-22 23:00N 29°59' W 093°53'0 0.0
2018-Jul-22 22:30N 29°59' W 093°53'0 0.0
2018-Jul-22 22:00N 29°59' W 093°53'0 0.0
2018-Jul-22 21:30N 29°59' W 093°53'0 0.0
2018-Jul-22 21:00N 29°59' W 093°53'0 0.0
2018-Jul-22 20:31N 29°59' W 093°53'0 0.0
2018-Jul-22 20:00N 29°59' W 093°53'0 0.0
2018-Jul-22 19:30N 29°59' W 093°53'0 0.0
2018-Jul-22 18:59N 29°59' W 093°53'0 0.0
2018-Jul-22 18:30N 29°59' W 093°53'0 0.0
2018-Jul-22 18:00N 29°59' W 093°53'0 0.0
2018-Jul-22 17:30N 29°59' W 093°53'0 0.0
2018-Jul-22 17:00N 29°59' W 093°53'0 0.0
2018-Jul-22 16:30N 29°59' W 093°53'1 2.1
2018-Jul-22 16:00N 29°59' W 093°52'1 0.6
2018-Jul-22 15:00N 29°58' W 093°51'0 0.2
2018-Jul-22 14:30N 29°58' W 093°51'3 6.1
2018-Jul-22 14:00N 29°59' W 093°55'3 6.1
2018-Jul-22 13:30N 30°01' W 093°58'3 6.4
2018-Jul-22 13:00N 30°01' W 094°01'3 5.7
2018-Jul-22 12:30N 30°04' W 094°02'2 4.8
2018-Jul-22 12:00N 30°05' W 094°05'0 0.3
2018-Jul-22 11:30N 30°05' W 094°05'0 0.0
2018-Jul-22 10:59N 30°05' W 094°05'0 0.0
2018-Jul-22 10:30N 30°05' W 094°05'0 0.0
2018-Jul-22 09:59N 30°05' W 094°05'0 0.0
2018-Jul-22 09:28N 30°05' W 094°05'0 0.0
2018-Jul-22 08:59N 30°05' W 094°05'0 0.0
2018-Jul-22 08:29N 30°05' W 094°05'0 0.0
2018-Jul-22 08:00N 30°05' W 094°05'0 0.0
2018-Jul-22 07:30N 30°05' W 094°05'0 0.0
2018-Jul-22 06:57N 30°05' W 094°05'0 0.0
2018-Jul-22 06:26N 30°05' W 094°05'0 0.0
2018-Jul-22 06:00N 30°05' W 094°05'0 0.0
2018-Jul-22 05:30N 30°05' W 094°05'0 0.0
2018-Jul-22 05:00N 30°05' W 094°05'0 0.0
2018-Jul-22 04:29N 30°05' W 094°05'0 0.0
2018-Jul-22 04:00N 30°05' W 094°05'0 0.0
2018-Jul-22 03:30N 30°05' W 094°05'0 0.0
2018-Jul-22 02:56N 30°05' W 094°05'0 0.0
2018-Jul-22 02:29N 30°05' W 094°05'0 0.0
2018-Jul-22 02:00N 30°05' W 094°05'0 0.0
2018-Jul-22 01:30N 30°05' W 094°05'0 0.0
2018-Jul-22 01:00N 30°05' W 094°05'0 0.0
2018-Jul-22 00:30N 30°05' W 094°05'0 0.0
2018-Jul-22 00:00N 30°05' W 094°05'0 0.0
2018-Jul-21 23:30N 30°05' W 094°05'0 0.0
2018-Jul-21 22:59N 30°05' W 094°05'0 0.0
2018-Jul-21 22:28N 30°05' W 094°05'0 0.0
2018-Jul-21 22:00N 30°05' W 094°05'0 0.0
2018-Jul-21 21:29N 30°05' W 094°05'0 0.0
2018-Jul-21 21:00N 30°05' W 094°05'0 0.0
2018-Jul-21 20:30N 30°05' W 094°05'0 0.0
2018-Jul-21 20:00N 30°05' W 094°05'0 0.0
2018-Jul-21 19:28N 30°05' W 094°05'0 0.0
2018-Jul-21 19:00N 30°05' W 094°05'0 0.0
2018-Jul-21 18:29N 30°05' W 094°05'0 0.0
2018-Jul-21 18:00N 30°05' W 094°05'3 5.7
2018-Jul-21 17:30N 30°04' W 094°02'3 5.9
2018-Jul-21 17:00N 30°01' W 094°01'3 6.1
2018-Jul-21 16:30N 30°00' W 093°57'2 3.3
2018-Jul-21 16:00N 29°60' W 093°55'1 1.0
2018-Jul-21 15:30N 29°59' W 093°56'0 0.0
2018-Jul-21 15:00N 29°59' W 093°56'0 0.0
2018-Jul-21 14:30N 29°59' W 093°56'0 0.0
2018-Jul-21 13:30N 29°59' W 093°56'0 0.0
2018-Jul-21 13:00N 29°59' W 093°56'0 0.0
2018-Jul-21 12:30N 29°59' W 093°56'0 0.0
2018-Jul-21 12:00N 29°59' W 093°56'0 0.0
2018-Jul-21 11:30N 29°59' W 093°56'0 0.0
2018-Jul-21 11:00N 29°59' W 093°56'0 0.0
2018-Jul-21 10:30N 29°59' W 093°56'0 0.0
2018-Jul-21 10:00N 29°59' W 093°56'0 0.0
2018-Jul-21 09:30N 29°59' W 093°56'0 0.0
2018-Jul-21 09:00N 29°59' W 093°56'0 0.0
2018-Jul-21 08:30N 29°59' W 093°56'0 0.0
2018-Jul-21 08:00N 29°59' W 093°56'0 0.0
2018-Jul-21 07:30N 29°59' W 093°56'0 0.0
2018-Jul-21 07:00N 29°59' W 093°56'0 0.0
2018-Jul-21 06:30N 29°59' W 093°56'0 0.0
2018-Jul-21 06:00N 29°59' W 093°56'0 0.0
2018-Jul-21 05:30N 29°59' W 093°56'0 0.0
2018-Jul-21 05:00N 29°59' W 093°56'0 0.0
2018-Jul-21 04:30N 29°59' W 093°56'0 0.0
2018-Jul-21 04:00N 29°59' W 093°56'0 0.0
2018-Jul-21 03:30N 29°59' W 093°56'0 0.0
2018-Jul-21 03:00N 29°59' W 093°56'0 0.0
2018-Jul-21 02:30N 29°59' W 093°56'0 0.0
2018-Jul-21 02:00N 29°59' W 093°56'0 0.0
2018-Jul-21 01:30N 29°59' W 093°56'0 0.0
2018-Jul-21 01:00N 29°59' W 093°56'0 0.0
2018-Jul-21 00:30N 29°59' W 093°56'0 0.0
2018-Jul-21 00:00N 29°59' W 093°56'0 0.0
2018-Jul-20 23:30N 29°59' W 093°56'0 0.0
2018-Jul-20 23:00N 29°59' W 093°56'0 0.0
2018-Jul-20 22:30N 29°59' W 093°56'0 0.0
2018-Jul-20 22:00N 29°59' W 093°56'0 0.0
2018-Jul-20 21:30N 29°59' W 093°56'0 0.0
2018-Jul-20 21:00N 29°59' W 093°56'1 1.6
2018-Jul-20 20:30N 29°59' W 093°55'3 5.4
2018-Jul-20 20:00N 29°59' W 093°52'1 2.2
2018-Jul-20 19:30N 29°58' W 093°51'0 0.1
2018-Jul-20 19:00N 29°58' W 093°51'0 0.3
2018-Jul-20 18:30N 29°58' W 093°51'0 0.0
2018-Jul-20 18:00N 29°58' W 093°51'0 0.0
2018-Jul-20 17:30N 29°58' W 093°51'0 0.0
2018-Jul-20 17:00N 29°58' W 093°51'0 0.0
2018-Jul-20 16:30N 29°58' W 093°51'0 0.0
2018-Jul-20 16:00N 29°58' W 093°51'0 0.0
2018-Jul-20 15:30N 29°58' W 093°51'0 0.7
2018-Jul-20 15:00N 29°58' W 093°51'0 0.7
2018-Jul-20 14:30N 29°58' W 093°51'0 0.0
2018-Jul-20 14:00N 29°58' W 093°51'0 0.0
2018-Jul-20 13:30N 29°58' W 093°51'0 0.0
2018-Jul-20 13:00N 29°58' W 093°51'0 0.0
2018-Jul-20 12:30N 29°58' W 093°51'0 0.0
2018-Jul-20 12:00N 29°58' W 093°51'0 0.0
2018-Jul-20 11:30N 29°58' W 093°51'0 0.0
2018-Jul-20 10:58N 29°58' W 093°51'0 0.0
2018-Jul-20 10:30N 29°58' W 093°51'0 0.0
2018-Jul-20 10:00N 29°58' W 093°51'0 0.0
2018-Jul-20 09:30N 29°58' W 093°51'0 0.0
2018-Jul-20 09:00N 29°58' W 093°51'0 0.0
2018-Jul-20 08:30N 29°58' W 093°51'0 0.0
2018-Jul-20 08:00N 29°58' W 093°51'0 0.0
2018-Jul-20 07:30N 29°58' W 093°51'0 0.0
2018-Jul-20 07:00N 29°58' W 093°51'0 0.0
2018-Jul-20 06:30N 29°58' W 093°51'0 0.0
2018-Jul-20 06:00N 29°58' W 093°51'0 0.0
2018-Jul-20 05:30N 29°58' W 093°51'0 0.0
2018-Jul-20 05:00N 29°58' W 093°51'0 0.0
2018-Jul-20 04:30N 29°58' W 093°51'0 0.0
2018-Jul-20 04:00N 29°58' W 093°51'0 0.0
2018-Jul-20 03:30N 29°58' W 093°51'0 0.0
2018-Jul-20 03:00N 29°58' W 093°51'0 0.0
2018-Jul-20 02:30N 29°58' W 093°51'0 0.0
2018-Jul-20 02:00N 29°58' W 093°51'0 0.0
2018-Jul-20 01:30N 29°58' W 093°51'0 0.0
2018-Jul-20 01:00N 29°58' W 093°51'0 0.0
2018-Jul-20 00:30N 29°58' W 093°51'0 0.0
2018-Jul-20 00:00N 29°58' W 093°51'0 0.0
2018-Jul-19 23:30N 29°58' W 093°51'0 0.7
2018-Jul-19 23:01N 29°58' W 093°51'0 0.7
2018-Jul-19 22:30N 29°58' W 093°51'0 0.0
2018-Jul-19 22:00N 29°58' W 093°51'0 0.0
2018-Jul-19 21:30N 29°58' W 093°51'0 0.0
2018-Jul-19 21:00N 29°58' W 093°51'0 0.0
2018-Jul-19 20:30N 29°58' W 093°51'0 0.0
2018-Jul-19 20:00N 29°58' W 093°51'0 0.0
2018-Jul-19 19:30N 29°58' W 093°51'0 0.0
2018-Jul-19 19:00N 29°58' W 093°51'0 0.0
2018-Jul-19 18:30N 29°58' W 093°51'0 0.0
2018-Jul-19 18:00N 29°58' W 093°51'0 0.7
2018-Jul-19 17:30N 29°58' W 093°51'0 0.0
2018-Jul-19 17:00N 29°58' W 093°51'0 0.0
2018-Jul-19 16:30N 29°58' W 093°51'0 0.0
2018-Jul-19 16:00N 29°58' W 093°51'0 0.0
2018-Jul-19 15:30N 29°58' W 093°51'0 0.0
2018-Jul-19 15:00N 29°58' W 093°51'0 0.0
2018-Jul-19 14:30N 29°58' W 093°51'0 0.0
2018-Jul-19 13:30N 29°58' W 093°51'0 0.0
2018-Jul-19 13:00N 29°58' W 093°51'0 0.0
2018-Jul-19 12:30N 29°58' W 093°51'0 0.0
2018-Jul-19 12:00N 29°58' W 093°51'0 0.0
2018-Jul-19 11:30N 29°58' W 093°51'0 0.0
2018-Jul-19 11:00N 29°58' W 093°51'0 0.0
2018-Jul-19 10:30N 29°58' W 093°51'0 0.0
2018-Jul-19 10:00N 29°58' W 093°51'0 0.0
2018-Jul-19 09:30N 29°58' W 093°51'0 0.0
2018-Jul-19 09:00N 29°58' W 093°51'0 0.0
2018-Jul-19 08:30N 29°58' W 093°51'0 0.0
2018-Jul-19 08:00N 29°58' W 093°51'0 0.0
2018-Jul-19 07:30N 29°58' W 093°51'0 0.0
2018-Jul-19 07:00N 29°58' W 093°51'0 0.7
2018-Jul-19 06:30N 29°58' W 093°51'3 5.6
2018-Jul-19 06:00N 29°59' W 093°54'3 6.2
2018-Jul-19 05:30N 30°00' W 093°57'2 3.1
2018-Jul-19 05:00N 30°01' W 093°59'0 0.1
2018-Jul-19 04:30N 30°01' W 093°59'0 0.0
2018-Jul-19 04:00N 30°01' W 093°59'0 0.0
2018-Jul-19 03:30N 30°01' W 093°59'0 0.0
2018-Jul-19 03:00N 30°01' W 093°59'0 0.0
2018-Jul-19 02:30N 30°01' W 093°59'0 0.0
2018-Jul-19 02:00N 30°01' W 093°59'0 0.0
2018-Jul-19 01:27N 30°01' W 093°59'0 0.0
2018-Jul-19 01:00N 30°01' W 093°59'0 0.0
2018-Jul-19 00:30N 30°01' W 093°59'0 0.0
2018-Jul-19 00:00N 30°01' W 093°59'0 0.0
2018-Jul-18 23:30N 30°01' W 093°59'0 0.0
2018-Jul-18 23:00N 30°01' W 093°59'0 0.0
2018-Jul-18 22:30N 30°01' W 093°59'0 0.0
2018-Jul-18 22:00N 30°01' W 093°59'0 0.0
2018-Jul-18 21:30N 30°01' W 093°59'0 0.0
2018-Jul-18 20:58N 30°01' W 093°59'0 0.0
2018-Jul-18 20:30N 30°01' W 093°59'0 0.0
2018-Jul-18 20:00N 30°01' W 093°59'0 0.0
2018-Jul-18 19:30N 30°01' W 093°59'0 0.0
2018-Jul-18 19:00N 30°01' W 093°59'0 0.0
2018-Jul-18 18:29N 30°01' W 093°59'0 0.0
2018-Jul-18 18:01N 30°01' W 093°59'0 0.0
2018-Jul-18 17:30N 30°01' W 093°59'0 0.0
2018-Jul-18 17:00N 30°01' W 093°59'0 0.0
2018-Jul-18 16:30N 30°01' W 093°59'0 0.6
2018-Jul-18 16:00N 30°01' W 093°59'0 0.1
2018-Jul-18 15:30N 30°01' W 093°59'0 0.0
2018-Jul-18 15:00N 30°01' W 093°59'0 0.1
2018-Jul-18 14:30N 30°01' W 093°59'4 3.9
2018-Jul-18 13:30N 29°60' W 093°55'1 2.7
2018-Jul-18 13:00N 29°59' W 093°53'2 4.5
2018-Jul-18 12:30N 29°58' W 093°51'0 0.0
2018-Jul-18 12:00N 29°58' W 093°51'0 0.0
2018-Jul-18 11:30N 29°58' W 093°51'0 0.0
2018-Jul-18 10:30N 29°58' W 093°51'0 0.0
2018-Jul-18 10:00N 29°58' W 093°51'0 0.0
2018-Jul-18 09:30N 29°58' W 093°51'0 0.0
2018-Jul-18 09:00N 29°58' W 093°51'0 0.0
2018-Jul-18 08:30N 29°58' W 093°51'0 0.0
2018-Jul-18 08:00N 29°58' W 093°51'0 0.0
2018-Jul-18 07:30N 29°58' W 093°51'0 0.0
2018-Jul-18 07:00N 29°58' W 093°51'0 0.0
2018-Jul-18 06:30N 29°58' W 093°51'0 0.4
2018-Jul-18 06:00N 29°58' W 093°51'0 0.4
2018-Jul-18 05:30N 29°58' W 093°51'2 4.4
2018-Jul-18 05:00N 29°59' W 093°53'2 4.6
2018-Jul-18 04:30N 29°59' W 093°56'0 0.1
2018-Jul-18 04:00N 29°59' W 093°56'4 8.1
2018-Jul-18 03:31N 29°58' W 093°51'0 0.4
2018-Jul-18 03:01N 29°58' W 093°51'0 0.1
2018-Jul-18 02:30N 29°58' W 093°51'0 0.6
2018-Jul-18 02:00N 29°58' W 093°51'0 0.0
2018-Jul-18 01:30N 29°58' W 093°51'0 0.0
2018-Jul-18 01:00N 29°58' W 093°51'0 0.0
2018-Jul-18 00:30N 29°58' W 093°51'0 0.0
2018-Jul-18 00:00N 29°58' W 093°51'0 0.0
2018-Jul-17 23:30N 29°58' W 093°51'0 0.0
2018-Jul-17 23:00N 29°58' W 093°51'0 0.0
2018-Jul-17 22:30N 29°58' W 093°51'0 0.0
2018-Jul-17 22:01N 29°58' W 093°51'0 0.0
2018-Jul-17 21:30N 29°58' W 093°51'0 0.0
2018-Jul-17 21:00N 29°58' W 093°51'0 0.0
2018-Jul-17 20:30N 29°58' W 093°51'0 0.0
2018-Jul-17 20:00N 29°58' W 093°51'0 0.0
2018-Jul-17 19:30N 29°58' W 093°51'0 0.0
2018-Jul-17 19:00N 29°58' W 093°51'0 0.0
2018-Jul-17 18:30N 29°58' W 093°51'0 0.0
2018-Jul-17 18:00N 29°58' W 093°51'0 0.0
2018-Jul-17 17:30N 29°58' W 093°51'0 0.0
2018-Jul-17 17:00N 29°58' W 093°51'0 0.6
2018-Jul-17 16:31N 29°58' W 093°51'0 0.0
2018-Jul-17 16:00N 29°58' W 093°51'0 0.0
2018-Jul-17 15:30N 29°58' W 093°51'0 0.0
2018-Jul-17 15:00N 29°58' W 093°51'0 0.0
2018-Jul-17 14:30N 29°58' W 093°51'0 0.0
2018-Jul-17 14:00N 29°58' W 093°51'0 0.0
2018-Jul-17 13:30N 29°58' W 093°51'0 0.6
2018-Jul-17 13:00N 29°58' W 093°51'0 0.0
2018-Jul-17 12:30N 29°58' W 093°51'0 0.0
2018-Jul-17 12:00N 29°58' W 093°51'0 0.5
2018-Jul-17 11:30N 29°58' W 093°51'0 0.5
2018-Jul-17 11:00N 29°58' W 093°51'0 0.0
2018-Jul-17 10:30N 29°58' W 093°51'0 0.0
2018-Jul-17 10:00N 29°58' W 093°51'0 0.0
2018-Jul-17 09:29N 29°58' W 093°51'0 0.0
2018-Jul-17 09:00N 29°58' W 093°51'0 0.0
2018-Jul-17 08:30N 29°58' W 093°51'0 0.0
2018-Jul-17 08:00N 29°58' W 093°51'0 0.0
2018-Jul-17 07:30N 29°58' W 093°51'0 0.0
2018-Jul-17 07:00N 29°58' W 093°51'0 0.0
2018-Jul-17 06:30N 29°58' W 093°51'0 0.0
2018-Jul-17 06:00N 29°58' W 093°51'0 0.0
2018-Jul-17 05:30N 29°58' W 093°51'0 0.0
2018-Jul-17 05:00N 29°58' W 093°51'0 0.0
2018-Jul-17 04:29N 29°58' W 093°51'0 0.0
2018-Jul-17 04:00N 29°58' W 093°51'0 0.0
2018-Jul-17 03:28N 29°58' W 093°51'0 0.0
2018-Jul-17 03:00N 29°58' W 093°51'0 0.0
2018-Jul-17 02:30N 29°58' W 093°51'0 0.0
2018-Jul-17 02:00N 29°58' W 093°51'0 0.0
2018-Jul-17 01:30N 29°58' W 093°51'0 0.0
2018-Jul-17 01:00N 29°58' W 093°51'0 0.0
2018-Jul-17 00:30N 29°58' W 093°51'0 0.0
2018-Jul-16 23:30N 29°58' W 093°51'0 0.0
2018-Jul-16 23:00N 29°58' W 093°51'0 0.0
2018-Jul-16 22:31N 29°58' W 093°51'0 0.0
2018-Jul-16 22:01N 29°58' W 093°51'0 0.0
2018-Jul-16 21:30N 29°58' W 093°51'0 0.0
2018-Jul-16 21:00N 29°58' W 093°51'0 0.0
2018-Jul-16 20:30N 29°58' W 093°51'0 0.0
2018-Jul-16 20:00N 29°58' W 093°51'0 0.0
2018-Jul-16 19:30N 29°58' W 093°51'0 0.0
2018-Jul-16 19:00N 29°58' W 093°51'0 0.0
2018-Jul-16 18:30N 29°58' W 093°51'0 0.0
2018-Jul-16 18:00N 29°58' W 093°51'0 0.0
2018-Jul-16 17:30N 29°58' W 093°51'1 2.9
2018-Jul-16 17:00N 29°59' W 093°52'2 4.3
2018-Jul-16 16:30N 29°60' W 093°55'2 4.6
2018-Jul-16 16:00N 29°59' W 093°52'1 2.4
2018-Jul-16 15:30N 29°58' W 093°51'1 1.5
2018-Jul-16 15:00N 29°59' W 093°52'2 4.1
2018-Jul-16 14:30N 29°59' W 093°54'3 6.2
2018-Jul-16 14:00N 30°00' W 093°57'3 6.1
2018-Jul-16 13:30N 30°01' W 094°01'3 5.5
2018-Jul-16 13:00N 30°04' W 094°02'2 4.9
2018-Jul-16 12:30N 30°05' W 094°05'1 1.0
2018-Jul-16 12:00N 30°05' W 094°05'0 0.0
2018-Jul-16 11:30N 30°05' W 094°05'0 0.0
2018-Jul-16 11:00N 30°05' W 094°05'0 0.0
2018-Jul-16 10:31N 30°05' W 094°05'0 0.0
2018-Jul-16 10:01N 30°05' W 094°05'0 0.0
2018-Jul-16 09:30N 30°05' W 094°05'0 0.0
2018-Jul-16 09:00N 30°05' W 094°05'0 0.0
2018-Jul-16 08:30N 30°05' W 094°05'0 0.0
2018-Jul-16 08:00N 30°05' W 094°05'0 0.0
2018-Jul-16 07:30N 30°05' W 094°05'0 0.0
2018-Jul-16 07:00N 30°05' W 094°05'0 0.0
2018-Jul-16 06:30N 30°05' W 094°05'0 0.0
2018-Jul-16 06:00N 30°05' W 094°05'0 0.0
2018-Jul-16 05:31N 30°05' W 094°05'0 0.0
2018-Jul-16 05:00N 30°05' W 094°05'0 0.0
2018-Jul-16 04:30N 30°05' W 094°05'0 0.0
2018-Jul-16 04:01N 30°05' W 094°05'0 0.0
2018-Jul-16 03:30N 30°05' W 094°05'0 0.0
2018-Jul-16 03:00N 30°05' W 094°05'0 0.0
2018-Jul-16 02:30N 30°05' W 094°05'0 0.0
2018-Jul-16 02:01N 30°05' W 094°05'0 0.0
2018-Jul-16 01:30N 30°05' W 094°05'0 0.0
2018-Jul-16 00:59N 30°05' W 094°05'0 0.0
2018-Jul-16 00:30N 30°05' W 094°05'0 0.0
2018-Jul-16 00:00N 30°05' W 094°05'0 0.0
2018-Jul-15 23:30N 30°05' W 094°05'0 0.0
2018-Jul-15 23:00N 30°05' W 094°05'0 0.0
2018-Jul-15 22:30N 30°05' W 094°05'0 0.0
2018-Jul-15 22:00N 30°05' W 094°05'0 0.0
2018-Jul-15 21:30N 30°05' W 094°05'0 0.0
2018-Jul-15 21:01N 30°05' W 094°05'0 0.0
2018-Jul-15 20:30N 30°05' W 094°05'0 0.0
2018-Jul-15 20:00N 30°05' W 094°05'0 0.0
2018-Jul-15 19:30N 30°05' W 094°05'0 0.0
2018-Jul-15 19:00N 30°05' W 094°05'0 0.0
2018-Jul-15 18:30N 30°05' W 094°05'0 0.0
2018-Jul-15 18:00N 30°05' W 094°05'0 0.0
2018-Jul-15 17:30N 30°05' W 094°05'0 0.0
2018-Jul-15 16:59N 30°05' W 094°05'0 0.0
2018-Jul-15 16:30N 30°05' W 094°05'0 0.0
2018-Jul-15 16:00N 30°05' W 094°05'0 0.0
2018-Jul-15 15:30N 30°05' W 094°05'0 0.0
2018-Jul-15 15:00N 30°05' W 094°05'0 0.0
2018-Jul-15 14:30N 30°05' W 094°05'0 0.0
2018-Jul-15 14:00N 30°05' W 094°05'0 0.0
2018-Jul-15 13:30N 30°05' W 094°05'0 0.0
2018-Jul-15 13:00N 30°05' W 094°05'2 3.0
2018-Jul-15 12:30N 30°04' W 094°03'3 6.6
2018-Jul-15 12:00N 30°01' W 094°02'4 7.4
2018-Jul-15 11:30N 30°01' W 093°58'3 5.5
2018-Jul-15 11:00N 29°60' W 093°55'0 0.0
2018-Jul-15 10:30N 29°60' W 093°55'0 0.0
2018-Jul-15 10:00N 29°60' W 093°55'0 0.0
2018-Jul-15 09:30N 29°60' W 093°55'0 0.0
2018-Jul-15 09:00N 29°60' W 093°55'0 0.0
2018-Jul-15 08:31N 29°60' W 093°55'0 0.0
2018-Jul-15 08:00N 29°60' W 093°55'0 0.0
2018-Jul-15 07:31N 29°60' W 093°55'0 0.0
2018-Jul-15 07:00N 29°60' W 093°55'0 0.0
2018-Jul-15 06:30N 29°60' W 093°55'0 0.0
2018-Jul-15 06:00N 29°60' W 093°55'0 0.0
2018-Jul-15 05:30N 29°60' W 093°55'0 0.0
2018-Jul-15 05:00N 29°60' W 093°55'0 0.0
2018-Jul-15 04:30N 29°60' W 093°55'0 0.0
2018-Jul-15 04:00N 29°60' W 093°55'0 0.0
2018-Jul-15 03:30N 29°60' W 093°55'0 0.0
2018-Jul-15 03:00N 29°60' W 093°55'0 0.0
2018-Jul-15 02:30N 29°60' W 093°55'0 0.0
2018-Jul-15 02:00N 29°60' W 093°55'0 0.0
2018-Jul-15 01:30N 29°60' W 093°55'0 0.0
2018-Jul-15 01:00N 29°60' W 093°55'0 0.0
2018-Jul-15 00:30N 29°60' W 093°55'2 3.9
2018-Jul-15 00:00N 29°59' W 093°53'3 5.0
2018-Jul-14 23:30N 29°59' W 093°50'3 5.1
2018-Jul-14 23:00N 29°60' W 093°47'3 5.7
2018-Jul-14 22:30N 30°01' W 093°44'2 3.9
2018-Jul-14 22:00N 30°03' W 093°43'3 5.3
2018-Jul-14 21:30N 30°04' W 093°40'3 5.5
2018-Jul-14 20:59N 30°04' W 093°37'3 5.4
2018-Jul-14 20:30N 30°04' W 093°34'3 5.6
2018-Jul-14 20:00N 30°04' W 093°31'3 5.6
2018-Jul-14 19:30N 30°04' W 093°28'3 5.4
2018-Jul-14 19:00N 30°04' W 093°24'3 5.1
2018-Jul-14 18:30N 30°04' W 093°21'3 5.3
2018-Jul-14 18:00N 30°06' W 093°19'2 4.1
2018-Jul-14 17:30N 30°06' W 093°17'0 0.0
2018-Jul-14 17:00N 30°06' W 093°17'0 0.1
2018-Jul-14 16:30N 30°06' W 093°17'0 0.0
2018-Jul-14 16:00N 30°06' W 093°17'0 0.0
2018-Jul-14 15:30N 30°06' W 093°17'0 0.0
2018-Jul-14 15:00N 30°06' W 093°17'0 0.0
2018-Jul-14 14:00N 30°06' W 093°17'0 0.0
2018-Jul-14 13:30N 30°06' W 093°17'0 0.0
2018-Jul-14 13:00N 30°06' W 093°17'0 0.0
2018-Jul-14 12:30N 30°06' W 093°17'0 0.0
2018-Jul-14 12:00N 30°06' W 093°17'0 0.0
2018-Jul-14 11:30N 30°06' W 093°17'0 0.0
2018-Jul-14 11:00N 30°06' W 093°17'0 0.0
2018-Jul-14 10:30N 30°06' W 093°17'0 0.0
2018-Jul-14 10:00N 30°06' W 093°17'0 0.0
2018-Jul-14 09:30N 30°06' W 093°17'0 0.0
2018-Jul-14 09:00N 30°06' W 093°17'0 0.0
2018-Jul-14 08:29N 30°06' W 093°17'0 0.0
2018-Jul-14 08:00N 30°06' W 093°17'0 0.0
2018-Jul-14 07:30N 30°06' W 093°17'0 0.0
2018-Jul-14 07:00N 30°06' W 093°17'0 0.0
2018-Jul-14 06:30N 30°06' W 093°17'0 0.0
2018-Jul-14 06:00N 30°06' W 093°17'0 0.0
2018-Jul-14 05:30N 30°06' W 093°17'0 0.0
2018-Jul-14 05:00N 30°06' W 093°17'0 0.0
2018-Jul-14 04:30N 30°06' W 093°17'0 0.0
2018-Jul-14 03:59N 30°06' W 093°17'0 0.0
2018-Jul-14 03:30N 30°06' W 093°17'0 0.0
2018-Jul-14 03:00N 30°06' W 093°17'0 0.0
2018-Jul-14 02:30N 30°06' W 093°17'0 0.0
2018-Jul-14 02:00N 30°06' W 093°17'0 0.0
2018-Jul-14 01:30N 30°06' W 093°17'0 0.0
2018-Jul-14 01:00N 30°06' W 093°17'0 0.0
2018-Jul-14 00:30N 30°06' W 093°17'0 0.0
2018-Jul-14 00:00N 30°06' W 093°17'0 0.0
2018-Jul-13 23:30N 30°06' W 093°17'0 0.0
2018-Jul-13 23:00N 30°06' W 093°17'0 0.0
2018-Jul-13 22:30N 30°06' W 093°17'0 0.0
2018-Jul-13 22:00N 30°06' W 093°17'0 0.0
2018-Jul-13 21:30N 30°06' W 093°17'0 0.0
2018-Jul-13 21:00N 30°06' W 093°17'0 0.0
2018-Jul-13 20:30N 30°06' W 093°17'0 0.0
2018-Jul-13 20:00N 30°06' W 093°17'0 0.0
2018-Jul-13 19:30N 30°06' W 093°17'0 0.0
2018-Jul-13 19:00N 30°06' W 093°17'0 0.0
2018-Jul-13 18:30N 30°06' W 093°17'0 0.0
2018-Jul-13 18:00N 30°06' W 093°17'0 0.0
2018-Jul-13 17:30N 30°06' W 093°17'0 0.0
2018-Jul-13 17:00N 30°06' W 093°17'0 0.0
2018-Jul-13 16:30N 30°06' W 093°17'0 0.0
2018-Jul-13 16:00N 30°06' W 093°17'0 0.0
2018-Jul-13 15:30N 30°06' W 093°17'0 0.0
2018-Jul-13 15:00N 30°06' W 093°17'0 0.0
2018-Jul-13 14:00N 30°06' W 093°17'0 0.0
2018-Jul-13 13:30N 30°06' W 093°17'0 0.0
2018-Jul-13 13:00N 30°06' W 093°17'0 0.0
2018-Jul-13 12:30N 30°06' W 093°17'0 0.0
2018-Jul-13 12:00N 30°06' W 093°17'0 0.0
2018-Jul-13 11:30N 30°06' W 093°17'0 0.0
2018-Jul-13 11:00N 30°06' W 093°17'0 0.0
2018-Jul-13 10:30N 30°06' W 093°17'0 0.0
2018-Jul-13 10:00N 30°06' W 093°17'0 0.0
2018-Jul-13 09:30N 30°06' W 093°17'0 0.0
2018-Jul-13 09:00N 30°06' W 093°17'0 0.0
2018-Jul-13 08:30N 30°06' W 093°17'0 0.0
2018-Jul-13 07:59N 30°06' W 093°17'0 0.0
2018-Jul-13 07:30N 30°06' W 093°17'0 0.0
2018-Jul-13 07:00N 30°06' W 093°17'0 0.0
2018-Jul-13 06:30N 30°06' W 093°17'0 0.0
2018-Jul-13 06:00N 30°06' W 093°17'0 0.0
2018-Jul-13 05:30N 30°06' W 093°17'0 0.0
2018-Jul-13 05:00N 30°06' W 093°17'0 0.0
2018-Jul-13 04:30N 30°06' W 093°17'0 0.0
2018-Jul-13 04:00N 30°06' W 093°17'0 0.0
2018-Jul-13 03:30N 30°06' W 093°17'0 0.0
2018-Jul-13 03:00N 30°06' W 093°17'0 0.0
2018-Jul-13 02:30N 30°06' W 093°17'0 0.0
2018-Jul-13 02:00N 30°06' W 093°17'0 0.0
2018-Jul-13 01:30N 30°06' W 093°17'0 0.0
2018-Jul-13 01:00N 30°06' W 093°17'0 0.0
2018-Jul-13 00:30N 30°06' W 093°17'0 0.0
2018-Jul-13 00:00N 30°06' W 093°17'  
Track history (hours):
 
Tides and Currents Weather Stations Pressure Air Temp Water Temp Dewpoint Dewpoint Depression Visibility Wind Speed Wind Dir Waves Ship Positions

Capt. Elliot Crochet

Owner: CLM TOWING, LLC, MAURICEVILLE, TX. More information available from US FCC via Universal Licensing System and Coast Guard Vessel Documentation Center.

Last reported at 2018-Jul-23 00:00 UTC. Time now 2018-Jul-23 00:00 UTC.
Position N 29°59' W 093°53'.

Length 24 m; draft 2.7 m.

Type: Towing. MMSI: 367675880.

Date/timePositionNaut miles runAvg speedWind from/ knotsBaromVisibWave heightAir tempDewpointWater temp
2018-Jul-23 00:00N 29°59' W 093°53'0 0.0
2018-Jul-22 23:31N 29°59' W 093°53'0 0.0
2018-Jul-22 23:00N 29°59' W 093°53'0 0.0
2018-Jul-22 22:30N 29°59' W 093°53'0 0.0
2018-Jul-22 22:00N 29°59' W 093°53'0 0.0
2018-Jul-22 21:30N 29°59' W 093°53'0 0.0
2018-Jul-22 21:00N 29°59' W 093°53'0 0.0
2018-Jul-22 20:31N 29°59' W 093°53'0 0.0
2018-Jul-22 20:00N 29°59' W 093°53'0 0.0
2018-Jul-22 19:30N 29°59' W 093°53'0 0.0
2018-Jul-22 18:59N 29°59' W 093°53'0 0.0
2018-Jul-22 18:30N 29°59' W 093°53'0 0.0
2018-Jul-22 18:00N 29°59' W 093°53'0 0.0
2018-Jul-22 17:30N 29°59' W 093°53'0 0.0
2018-Jul-22 17:00N 29°59' W 093°53'0 0.0
2018-Jul-22 16:30N 29°59' W 093°53'1 2.1
2018-Jul-22 16:00N 29°59' W 093°52'1 0.6
2018-Jul-22 15:00N 29°58' W 093°51'0 0.2
2018-Jul-22 14:30N 29°58' W 093°51'3 6.1
2018-Jul-22 14:00N 29°59' W 093°55'3 6.1
2018-Jul-22 13:30N 30°01' W 093°58'3 6.4
2018-Jul-22 13:00N 30°01' W 094°01'3 5.7
2018-Jul-22 12:30N 30°04' W 094°02'2 4.8
2018-Jul-22 12:00N 30°05' W 094°05'0 0.3
2018-Jul-22 11:30N 30°05' W 094°05'0 0.0
2018-Jul-22 10:59N 30°05' W 094°05'0 0.0
2018-Jul-22 10:30N 30°05' W 094°05'0 0.0
2018-Jul-22 09:59N 30°05' W 094°05'0 0.0
2018-Jul-22 09:28N 30°05' W 094°05'0 0.0
2018-Jul-22 08:59N 30°05' W 094°05'0 0.0
2018-Jul-22 08:29N 30°05' W 094°05'0 0.0
2018-Jul-22 08:00N 30°05' W 094°05'0 0.0
2018-Jul-22 07:30N 30°05' W 094°05'0 0.0
2018-Jul-22 06:57N 30°05' W 094°05'0 0.0
2018-Jul-22 06:26N 30°05' W 094°05'0 0.0
2018-Jul-22 06:00N 30°05' W 094°05'0 0.0
2018-Jul-22 05:30N 30°05' W 094°05'0 0.0
2018-Jul-22 05:00N 30°05' W 094°05'0 0.0
2018-Jul-22 04:29N 30°05' W 094°05'0 0.0
2018-Jul-22 04:00N 30°05' W 094°05'0 0.0
2018-Jul-22 03:30N 30°05' W 094°05'0 0.0
2018-Jul-22 02:56N 30°05' W 094°05'0 0.0
2018-Jul-22 02:29N 30°05' W 094°05'0 0.0
2018-Jul-22 02:00N 30°05' W 094°05'0 0.0
2018-Jul-22 01:30N 30°05' W 094°05'0 0.0
2018-Jul-22 01:00N 30°05' W 094°05'0 0.0
2018-Jul-22 00:30N 30°05' W 094°05'0 0.0
2018-Jul-22 00:00N 30°05' W 094°05'0 0.0
2018-Jul-21 23:30N 30°05' W 094°05'0 0.0
2018-Jul-21 22:59N 30°05' W 094°05'0 0.0
2018-Jul-21 22:28N 30°05' W 094°05'0 0.0
2018-Jul-21 22:00N 30°05' W 094°05'0 0.0
2018-Jul-21 21:29N 30°05' W 094°05'0 0.0
2018-Jul-21 21:00N 30°05' W 094°05'0 0.0
2018-Jul-21 20:30N 30°05' W 094°05'0 0.0
2018-Jul-21 20:00N 30°05' W 094°05'0 0.0
2018-Jul-21 19:28N 30°05' W 094°05'0 0.0
2018-Jul-21 19:00N 30°05' W 094°05'0 0.0
2018-Jul-21 18:29N 30°05' W 094°05'0 0.0
2018-Jul-21 18:00N 30°05' W 094°05'3 5.7
2018-Jul-21 17:30N 30°04' W 094°02'3 5.9
2018-Jul-21 17:00N 30°01' W 094°01'3 6.1
2018-Jul-21 16:30N 30°00' W 093°57'2 3.3
2018-Jul-21 16:00N 29°60' W 093°55'1 1.0
2018-Jul-21 15:30N 29°59' W 093°56'0 0.0
2018-Jul-21 15:00N 29°59' W 093°56'0 0.0
2018-Jul-21 14:30N 29°59' W 093°56'0 0.0
2018-Jul-21 13:30N 29°59' W 093°56'0 0.0
2018-Jul-21 13:00N 29°59' W 093°56'0 0.0
2018-Jul-21 12:30N 29°59' W 093°56'0 0.0
2018-Jul-21 12:00N 29°59' W 093°56'0 0.0
2018-Jul-21 11:30N 29°59' W 093°56'0 0.0
2018-Jul-21 11:00N 29°59' W 093°56'0 0.0
2018-Jul-21 10:30N 29°59' W 093°56'0 0.0
2018-Jul-21 10:00N 29°59' W 093°56'0 0.0
2018-Jul-21 09:30N 29°59' W 093°56'0 0.0
2018-Jul-21 09:00N 29°59' W 093°56'0 0.0
2018-Jul-21 08:30N 29°59' W 093°56'0 0.0
2018-Jul-21 08:00N 29°59' W 093°56'0 0.0
2018-Jul-21 07:30N 29°59' W 093°56'0 0.0
2018-Jul-21 07:00N 29°59' W 093°56'0 0.0
2018-Jul-21 06:30N 29°59' W 093°56'0 0.0
2018-Jul-21 06:00N 29°59' W 093°56'0 0.0
2018-Jul-21 05:30N 29°59' W 093°56'0 0.0
2018-Jul-21 05:00N 29°59' W 093°56'0 0.0
2018-Jul-21 04:30N 29°59' W 093°56'0 0.0
2018-Jul-21 04:00N 29°59' W 093°56'0 0.0
2018-Jul-21 03:30N 29°59' W 093°56'0 0.0
2018-Jul-21 03:00N 29°59' W 093°56'0 0.0
2018-Jul-21 02:30N 29°59' W 093°56'0 0.0
2018-Jul-21 02:00N 29°59' W 093°56'0 0.0
2018-Jul-21 01:30N 29°59' W 093°56'0 0.0
2018-Jul-21 01:00N 29°59' W 093°56'0 0.0
2018-Jul-21 00:30N 29°59' W 093°56'0 0.0
2018-Jul-21 00:00N 29°59' W 093°56'0 0.0
2018-Jul-20 23:30N 29°59' W 093°56'0 0.0
2018-Jul-20 23:00N 29°59' W 093°56'0 0.0
2018-Jul-20 22:30N 29°59' W 093°56'0 0.0
2018-Jul-20 22:00N 29°59' W 093°56'0 0.0
2018-Jul-20 21:30N 29°59' W 093°56'0 0.0
2018-Jul-20 21:00N 29°59' W 093°56'1 1.6
2018-Jul-20 20:30N 29°59' W 093°55'3 5.4
2018-Jul-20 20:00N 29°59' W 093°52'1 2.2
2018-Jul-20 19:30N 29°58' W 093°51'0 0.1
2018-Jul-20 19:00N 29°58' W 093°51'0 0.3
2018-Jul-20 18:30N 29°58' W 093°51'0 0.0
2018-Jul-20 18:00N 29°58' W 093°51'0 0.0
2018-Jul-20 17:30N 29°58' W 093°51'0 0.0
2018-Jul-20 17:00N 29°58' W 093°51'0 0.0
2018-Jul-20 16:30N 29°58' W 093°51'0 0.0
2018-Jul-20 16:00N 29°58' W 093°51'0 0.0
2018-Jul-20 15:30N 29°58' W 093°51'0 0.7
2018-Jul-20 15:00N 29°58' W 093°51'0 0.7
2018-Jul-20 14:30N 29°58' W 093°51'0 0.0
2018-Jul-20 14:00N 29°58' W 093°51'0 0.0
2018-Jul-20 13:30N 29°58' W 093°51'0 0.0
2018-Jul-20 13:00N 29°58' W 093°51'0 0.0
2018-Jul-20 12:30N 29°58' W 093°51'0 0.0
2018-Jul-20 12:00N 29°58' W 093°51'0 0.0
2018-Jul-20 11:30N 29°58' W 093°51'0 0.0
2018-Jul-20 10:58N 29°58' W 093°51'0 0.0
2018-Jul-20 10:30N 29°58' W 093°51'0 0.0
2018-Jul-20 10:00N 29°58' W 093°51'0 0.0
2018-Jul-20 09:30N 29°58' W 093°51'0 0.0
2018-Jul-20 09:00N 29°58' W 093°51'0 0.0
2018-Jul-20 08:30N 29°58' W 093°51'0 0.0
2018-Jul-20 08:00N 29°58' W 093°51'0 0.0
2018-Jul-20 07:30N 29°58' W 093°51'0 0.0
2018-Jul-20 07:00N 29°58' W 093°51'0 0.0
2018-Jul-20 06:30N 29°58' W 093°51'0 0.0
2018-Jul-20 06:00N 29°58' W 093°51'0 0.0
2018-Jul-20 05:30N 29°58' W 093°51'0 0.0
2018-Jul-20 05:00N 29°58' W 093°51'0 0.0
2018-Jul-20 04:30N 29°58' W 093°51'0 0.0
2018-Jul-20 04:00N 29°58' W 093°51'0 0.0
2018-Jul-20 03:30N 29°58' W 093°51'0 0.0
2018-Jul-20 03:00N 29°58' W 093°51'0 0.0
2018-Jul-20 02:30N 29°58' W 093°51'0 0.0
2018-Jul-20 02:00N 29°58' W 093°51'0 0.0
2018-Jul-20 01:30N 29°58' W 093°51'0 0.0
2018-Jul-20 01:00N 29°58' W 093°51'0 0.0
2018-Jul-20 00:30N 29°58' W 093°51'0 0.0
2018-Jul-20 00:00N 29°58' W 093°51'0 0.0
2018-Jul-19 23:30N 29°58' W 093°51'0 0.7
2018-Jul-19 23:01N 29°58' W 093°51'0 0.7
2018-Jul-19 22:30N 29°58' W 093°51'0 0.0
2018-Jul-19 22:00N 29°58' W 093°51'0 0.0
2018-Jul-19 21:30N 29°58' W 093°51'0 0.0
2018-Jul-19 21:00N 29°58' W 093°51'0 0.0
2018-Jul-19 20:30N 29°58' W 093°51'0 0.0
2018-Jul-19 20:00N 29°58' W 093°51'0 0.0
2018-Jul-19 19:30N 29°58' W 093°51'0 0.0
2018-Jul-19 19:00N 29°58' W 093°51'0 0.0
2018-Jul-19 18:30N 29°58' W 093°51'0 0.0
2018-Jul-19 18:00N 29°58' W 093°51'0 0.7
2018-Jul-19 17:30N 29°58' W 093°51'0 0.0
2018-Jul-19 17:00N 29°58' W 093°51'0 0.0
2018-Jul-19 16:30N 29°58' W 093°51'0 0.0
2018-Jul-19 16:00N 29°58' W 093°51'0 0.0
2018-Jul-19 15:30N 29°58' W 093°51'0 0.0
2018-Jul-19 15:00N 29°58' W 093°51'0 0.0
2018-Jul-19 14:30N 29°58' W 093°51'0 0.0
2018-Jul-19 13:30N 29°58' W 093°51'0 0.0
2018-Jul-19 13:00N 29°58' W 093°51'0 0.0
2018-Jul-19 12:30N 29°58' W 093°51'0 0.0
2018-Jul-19 12:00N 29°58' W 093°51'0 0.0
2018-Jul-19 11:30N 29°58' W 093°51'0 0.0
2018-Jul-19 11:00N 29°58' W 093°51'0 0.0
2018-Jul-19 10:30N 29°58' W 093°51'0 0.0
2018-Jul-19 10:00N 29°58' W 093°51'0 0.0
2018-Jul-19 09:30N 29°58' W 093°51'0 0.0
2018-Jul-19 09:00N 29°58' W 093°51'0 0.0
2018-Jul-19 08:30N 29°58' W 093°51'0 0.0
2018-Jul-19 08:00N 29°58' W 093°51'0 0.0
2018-Jul-19 07:30N 29°58' W 093°51'0 0.0
2018-Jul-19 07:00N 29°58' W 093°51'0 0.7
2018-Jul-19 06:30N 29°58' W 093°51'3 5.6
2018-Jul-19 06:00N 29°59' W 093°54'3 6.2
2018-Jul-19 05:30N 30°00' W 093°57'2 3.1
2018-Jul-19 05:00N 30°01' W 093°59'0 0.1
2018-Jul-19 04:30N 30°01' W 093°59'0 0.0
2018-Jul-19 04:00N 30°01' W 093°59'0 0.0
2018-Jul-19 03:30N 30°01' W 093°59'0 0.0
2018-Jul-19 03:00N 30°01' W 093°59'0 0.0
2018-Jul-19 02:30N 30°01' W 093°59'0 0.0
2018-Jul-19 02:00N 30°01' W 093°59'0 0.0
2018-Jul-19 01:27N 30°01' W 093°59'0 0.0
2018-Jul-19 01:00N 30°01' W 093°59'0 0.0
2018-Jul-19 00:30N 30°01' W 093°59'0 0.0
2018-Jul-19 00:00N 30°01' W 093°59'0 0.0
2018-Jul-18 23:30N 30°01' W 093°59'0 0.0
2018-Jul-18 23:00N 30°01' W 093°59'0 0.0
2018-Jul-18 22:30N 30°01' W 093°59'0 0.0
2018-Jul-18 22:00N 30°01' W 093°59'0 0.0
2018-Jul-18 21:30N 30°01' W 093°59'0 0.0
2018-Jul-18 20:58N 30°01' W 093°59'0 0.0
2018-Jul-18 20:30N 30°01' W 093°59'0 0.0
2018-Jul-18 20:00N 30°01' W 093°59'0 0.0
2018-Jul-18 19:30N 30°01' W 093°59'0 0.0
2018-Jul-18 19:00N 30°01' W 093°59'0 0.0
2018-Jul-18 18:29N 30°01' W 093°59'0 0.0
2018-Jul-18 18:01N 30°01' W 093°59'0 0.0
2018-Jul-18 17:30N 30°01' W 093°59'0 0.0
2018-Jul-18 17:00N 30°01' W 093°59'0 0.0
2018-Jul-18 16:30N 30°01' W 093°59'0 0.6
2018-Jul-18 16:00N 30°01' W 093°59'0 0.1
2018-Jul-18 15:30N 30°01' W 093°59'0 0.0
2018-Jul-18 15:00N 30°01' W 093°59'0 0.1
2018-Jul-18 14:30N 30°01' W 093°59'4 3.9
2018-Jul-18 13:30N 29°60' W 093°55'1 2.7
2018-Jul-18 13:00N 29°59' W 093°53'2 4.5
2018-Jul-18 12:30N 29°58' W 093°51'0 0.0
2018-Jul-18 12:00N 29°58' W 093°51'0 0.0
2018-Jul-18 11:30N 29°58' W 093°51'0 0.0
2018-Jul-18 10:30N 29°58' W 093°51'0 0.0
2018-Jul-18 10:00N 29°58' W 093°51'0 0.0
2018-Jul-18 09:30N 29°58' W 093°51'0 0.0
2018-Jul-18 09:00N 29°58' W 093°51'0 0.0
2018-Jul-18 08:30N 29°58' W 093°51'0 0.0
2018-Jul-18 08:00N 29°58' W 093°51'0 0.0
2018-Jul-18 07:30N 29°58' W 093°51'0 0.0
2018-Jul-18 07:00N 29°58' W 093°51'0 0.0
2018-Jul-18 06:30N 29°58' W 093°51'0 0.4
2018-Jul-18 06:00N 29°58' W 093°51'0 0.4
2018-Jul-18 05:30N 29°58' W 093°51'2 4.4
2018-Jul-18 05:00N 29°59' W 093°53'2 4.6
2018-Jul-18 04:30N 29°59' W 093°56'0 0.1
2018-Jul-18 04:00N 29°59' W 093°56'4 8.1
2018-Jul-18 03:31N 29°58' W 093°51'0 0.4
2018-Jul-18 03:01N 29°58' W 093°51'0 0.1
2018-Jul-18 02:30N 29°58' W 093°51'0 0.6
2018-Jul-18 02:00N 29°58' W 093°51'0 0.0
2018-Jul-18 01:30N 29°58' W 093°51'0 0.0
2018-Jul-18 01:00N 29°58' W 093°51'0 0.0
2018-Jul-18 00:30N 29°58' W 093°51'0 0.0
2018-Jul-18 00:00N 29°58' W 093°51'0 0.0
2018-Jul-17 23:30N 29°58' W 093°51'0 0.0
2018-Jul-17 23:00N 29°58' W 093°51'0 0.0
2018-Jul-17 22:30N 29°58' W 093°51'0 0.0
2018-Jul-17 22:01N 29°58' W 093°51'0 0.0
2018-Jul-17 21:30N 29°58' W 093°51'0 0.0
2018-Jul-17 21:00N 29°58' W 093°51'0 0.0
2018-Jul-17 20:30N 29°58' W 093°51'0 0.0
2018-Jul-17 20:00N 29°58' W 093°51'0 0.0
2018-Jul-17 19:30N 29°58' W 093°51'0 0.0
2018-Jul-17 19:00N 29°58' W 093°51'0 0.0
2018-Jul-17 18:30N 29°58' W 093°51'0 0.0
2018-Jul-17 18:00N 29°58' W 093°51'0 0.0
2018-Jul-17 17:30N 29°58' W 093°51'0 0.0
2018-Jul-17 17:00N 29°58' W 093°51'0 0.6
2018-Jul-17 16:31N 29°58' W 093°51'0 0.0
2018-Jul-17 16:00N 29°58' W 093°51'0 0.0
2018-Jul-17 15:30N 29°58' W 093°51'0 0.0
2018-Jul-17 15:00N 29°58' W 093°51'0 0.0
2018-Jul-17 14:30N 29°58' W 093°51'0 0.0
2018-Jul-17 14:00N 29°58' W 093°51'0 0.0
2018-Jul-17 13:30N 29°58' W 093°51'0 0.6
2018-Jul-17 13:00N 29°58' W 093°51'0 0.0
2018-Jul-17 12:30N 29°58' W 093°51'0 0.0
2018-Jul-17 12:00N 29°58' W 093°51'0 0.5
2018-Jul-17 11:30N 29°58' W 093°51'0 0.5
2018-Jul-17 11:00N 29°58' W 093°51'0 0.0
2018-Jul-17 10:30N 29°58' W 093°51'0 0.0
2018-Jul-17 10:00N 29°58' W 093°51'0 0.0
2018-Jul-17 09:29N 29°58' W 093°51'0 0.0
2018-Jul-17 09:00N 29°58' W 093°51'0 0.0
2018-Jul-17 08:30N 29°58' W 093°51'0 0.0
2018-Jul-17 08:00N 29°58' W 093°51'0 0.0
2018-Jul-17 07:30N 29°58' W 093°51'0 0.0
2018-Jul-17 07:00N 29°58' W 093°51'0 0.0
2018-Jul-17 06:30N 29°58' W 093°51'0 0.0
2018-Jul-17 06:00N 29°58' W 093°51'0 0.0
2018-Jul-17 05:30N 29°58' W 093°51'0 0.0
2018-Jul-17 05:00N 29°58' W 093°51'0 0.0
2018-Jul-17 04:29N 29°58' W 093°51'0 0.0
2018-Jul-17 04:00N 29°58' W 093°51'0 0.0
2018-Jul-17 03:28N 29°58' W 093°51'0 0.0
2018-Jul-17 03:00N 29°58' W 093°51'0 0.0
2018-Jul-17 02:30N 29°58' W 093°51'0 0.0
2018-Jul-17 02:00N 29°58' W 093°51'0 0.0
2018-Jul-17 01:30N 29°58' W 093°51'0 0.0
2018-Jul-17 01:00N 29°58' W 093°51'0 0.0
2018-Jul-17 00:30N 29°58' W 093°51'0 0.0
2018-Jul-16 23:30N 29°58' W 093°51'0 0.0
2018-Jul-16 23:00N 29°58' W 093°51'0 0.0
2018-Jul-16 22:31N 29°58' W 093°51'0 0.0
2018-Jul-16 22:01N 29°58' W 093°51'0 0.0
2018-Jul-16 21:30N 29°58' W 093°51'0 0.0
2018-Jul-16 21:00N 29°58' W 093°51'0 0.0
2018-Jul-16 20:30N 29°58' W 093°51'0 0.0
2018-Jul-16 20:00N 29°58' W 093°51'0 0.0
2018-Jul-16 19:30N 29°58' W 093°51'0 0.0
2018-Jul-16 19:00N 29°58' W 093°51'0 0.0
2018-Jul-16 18:30N 29°58' W 093°51'0 0.0
2018-Jul-16 18:00N 29°58' W 093°51'0 0.0
2018-Jul-16 17:30N 29°58' W 093°51'1 2.9
2018-Jul-16 17:00N 29°59' W 093°52'2 4.3
2018-Jul-16 16:30N 29°60' W 093°55'2 4.6
2018-Jul-16 16:00N 29°59' W 093°52'1 2.4
2018-Jul-16 15:30N 29°58' W 093°51'1 1.5
2018-Jul-16 15:00N 29°59' W 093°52'2 4.1
2018-Jul-16 14:30N 29°59' W 093°54'3 6.2
2018-Jul-16 14:00N 30°00' W 093°57'3 6.1
2018-Jul-16 13:30N 30°01' W 094°01'3 5.5
2018-Jul-16 13:00N 30°04' W 094°02'2 4.9
2018-Jul-16 12:30N 30°05' W 094°05'1 1.0
2018-Jul-16 12:00N 30°05' W 094°05'0 0.0
2018-Jul-16 11:30N 30°05' W 094°05'0 0.0
2018-Jul-16 11:00N 30°05' W 094°05'0 0.0
2018-Jul-16 10:31N 30°05' W 094°05'0 0.0
2018-Jul-16 10:01N 30°05' W 094°05'0 0.0
2018-Jul-16 09:30N 30°05' W 094°05'0 0.0
2018-Jul-16 09:00N 30°05' W 094°05'0 0.0
2018-Jul-16 08:30N 30°05' W 094°05'0 0.0
2018-Jul-16 08:00N 30°05' W 094°05'0 0.0
2018-Jul-16 07:30N 30°05' W 094°05'0 0.0
2018-Jul-16 07:00N 30°05' W 094°05'0 0.0
2018-Jul-16 06:30N 30°05' W 094°05'0 0.0
2018-Jul-16 06:00N 30°05' W 094°05'0 0.0
2018-Jul-16 05:31N 30°05' W 094°05'0 0.0
2018-Jul-16 05:00N 30°05' W 094°05'0 0.0
2018-Jul-16 04:30N 30°05' W 094°05'0 0.0
2018-Jul-16 04:01N 30°05' W 094°05'0 0.0
2018-Jul-16 03:30N 30°05' W 094°05'0 0.0
2018-Jul-16 03:00N 30°05' W 094°05'0 0.0
2018-Jul-16 02:30N 30°05' W 094°05'0 0.0
2018-Jul-16 02:01N 30°05' W 094°05'0 0.0
2018-Jul-16 01:30N 30°05' W 094°05'0 0.0
2018-Jul-16 00:59N 30°05' W 094°05'0 0.0
2018-Jul-16 00:30N 30°05' W 094°05'0 0.0
2018-Jul-16 00:00N 30°05' W 094°05'0 0.0
2018-Jul-15 23:30N 30°05' W 094°05'0 0.0
2018-Jul-15 23:00N 30°05' W 094°05'0 0.0
2018-Jul-15 22:30N 30°05' W 094°05'0 0.0
2018-Jul-15 22:00N 30°05' W 094°05'0 0.0
2018-Jul-15 21:30N 30°05' W 094°05'0 0.0
2018-Jul-15 21:01N 30°05' W 094°05'0 0.0
2018-Jul-15 20:30N 30°05' W 094°05'0 0.0
2018-Jul-15 20:00N 30°05' W 094°05'0 0.0
2018-Jul-15 19:30N 30°05' W 094°05'0 0.0
2018-Jul-15 19:00N 30°05' W 094°05'0 0.0
2018-Jul-15 18:30N 30°05' W 094°05'0 0.0
2018-Jul-15 18:00N 30°05' W 094°05'0 0.0
2018-Jul-15 17:30N 30°05' W 094°05'0 0.0
2018-Jul-15 16:59N 30°05' W 094°05'0 0.0
2018-Jul-15 16:30N 30°05' W 094°05'0 0.0
2018-Jul-15 16:00N 30°05' W 094°05'0 0.0
2018-Jul-15 15:30N 30°05' W 094°05'0 0.0
2018-Jul-15 15:00N 30°05' W 094°05'0 0.0
2018-Jul-15 14:30N 30°05' W 094°05'0 0.0
2018-Jul-15 14:00N 30°05' W 094°05'0 0.0
2018-Jul-15 13:30N 30°05' W 094°05'0 0.0
2018-Jul-15 13:00N 30°05' W 094°05'2 3.0
2018-Jul-15 12:30N 30°04' W 094°03'3 6.6
2018-Jul-15 12:00N 30°01' W 094°02'4 7.4
2018-Jul-15 11:30N 30°01' W 093°58'3 5.5
2018-Jul-15 11:00N 29°60' W 093°55'0 0.0
2018-Jul-15 10:30N 29°60' W 093°55'0 0.0
2018-Jul-15 10:00N 29°60' W 093°55'0 0.0
2018-Jul-15 09:30N 29°60' W 093°55'0 0.0
2018-Jul-15 09:00N 29°60' W 093°55'0 0.0
2018-Jul-15 08:31N 29°60' W 093°55'0 0.0
2018-Jul-15 08:00N 29°60' W 093°55'0 0.0
2018-Jul-15 07:31N 29°60' W 093°55'0 0.0
2018-Jul-15 07:00N 29°60' W 093°55'0 0.0
2018-Jul-15 06:30N 29°60' W 093°55'0 0.0
2018-Jul-15 06:00N 29°60' W 093°55'0 0.0
2018-Jul-15 05:30N 29°60' W 093°55'0 0.0
2018-Jul-15 05:00N 29°60' W 093°55'0 0.0
2018-Jul-15 04:30N 29°60' W 093°55'0 0.0
2018-Jul-15 04:00N 29°60' W 093°55'0 0.0
2018-Jul-15 03:30N 29°60' W 093°55'0 0.0
2018-Jul-15 03:00N 29°60' W 093°55'0 0.0
2018-Jul-15 02:30N 29°60' W 093°55'0 0.0
2018-Jul-15 02:00N 29°60' W 093°55'0 0.0
2018-Jul-15 01:30N 29°60' W 093°55'0 0.0
2018-Jul-15 01:00N 29°60' W 093°55'0 0.0
2018-Jul-15 00:30N 29°60' W 093°55'2 3.9
2018-Jul-15 00:00N 29°59' W 093°53'3 5.0
2018-Jul-14 23:30N 29°59' W 093°50'3 5.1
2018-Jul-14 23:00N 29°60' W 093°47'3 5.7
2018-Jul-14 22:30N 30°01' W 093°44'2 3.9
2018-Jul-14 22:00N 30°03' W 093°43'3 5.3
2018-Jul-14 21:30N 30°04' W 093°40'3 5.5
2018-Jul-14 20:59N 30°04' W 093°37'3 5.4
2018-Jul-14 20:30N 30°04' W 093°34'3 5.6
2018-Jul-14 20:00N 30°04' W 093°31'3 5.6
2018-Jul-14 19:30N 30°04' W 093°28'3 5.4
2018-Jul-14 19:00N 30°04' W 093°24'3 5.1
2018-Jul-14 18:30N 30°04' W 093°21'3 5.3
2018-Jul-14 18:00N 30°06' W 093°19'2 4.1
2018-Jul-14 17:30N 30°06' W 093°17'0 0.0
2018-Jul-14 17:00N 30°06' W 093°17'0 0.1
2018-Jul-14 16:30N 30°06' W 093°17'0 0.0
2018-Jul-14 16:00N 30°06' W 093°17'0 0.0
2018-Jul-14 15:30N 30°06' W 093°17'0 0.0
2018-Jul-14 15:00N 30°06' W 093°17'0 0.0
2018-Jul-14 14:00N 30°06' W 093°17'0 0.0
2018-Jul-14 13:30N 30°06' W 093°17'0 0.0
2018-Jul-14 13:00N 30°06' W 093°17'0 0.0
2018-Jul-14 12:30N 30°06' W 093°17'0 0.0
2018-Jul-14 12:00N 30°06' W 093°17'0 0.0
2018-Jul-14 11:30N 30°06' W 093°17'0 0.0
2018-Jul-14 11:00N 30°06' W 093°17'0 0.0
2018-Jul-14 10:30N 30°06' W 093°17'0 0.0
2018-Jul-14 10:00N 30°06' W 093°17'0 0.0
2018-Jul-14 09:30N 30°06' W 093°17'0 0.0
2018-Jul-14 09:00N 30°06' W 093°17'0 0.0
2018-Jul-14 08:29N 30°06' W 093°17'0 0.0
2018-Jul-14 08:00N 30°06' W 093°17'0 0.0
2018-Jul-14 07:30N 30°06' W 093°17'0 0.0
2018-Jul-14 07:00N 30°06' W 093°17'0 0.0
2018-Jul-14 06:30N 30°06' W 093°17'0 0.0
2018-Jul-14 06:00N 30°06' W 093°17'0 0.0
2018-Jul-14 05:30N 30°06' W 093°17'0 0.0
2018-Jul-14 05:00N 30°06' W 093°17'0 0.0
2018-Jul-14 04:30N 30°06' W 093°17'0 0.0
2018-Jul-14 03:59N 30°06' W 093°17'0 0.0
2018-Jul-14 03:30N 30°06' W 093°17'0 0.0
2018-Jul-14 03:00N 30°06' W 093°17'0 0.0
2018-Jul-14 02:30N 30°06' W 093°17'0 0.0
2018-Jul-14 02:00N 30°06' W 093°17'0 0.0
2018-Jul-14 01:30N 30°06' W 093°17'0 0.0
2018-Jul-14 01:00N 30°06' W 093°17'0 0.0
2018-Jul-14 00:30N 30°06' W 093°17'0 0.0
2018-Jul-14 00:00N 30°06' W 093°17'0 0.0
2018-Jul-13 23:30N 30°06' W 093°17'0 0.0
2018-Jul-13 23:00N 30°06' W 093°17'0 0.0
2018-Jul-13 22:30N 30°06' W 093°17'0 0.0
2018-Jul-13 22:00N 30°06' W 093°17'0 0.0
2018-Jul-13 21:30N 30°06' W 093°17'0 0.0
2018-Jul-13 21:00N 30°06' W 093°17'0 0.0
2018-Jul-13 20:30N 30°06' W 093°17'0 0.0
2018-Jul-13 20:00N 30°06' W 093°17'0 0.0
2018-Jul-13 19:30N 30°06' W 093°17'0 0.0
2018-Jul-13 19:00N 30°06' W 093°17'0 0.0
2018-Jul-13 18:30N 30°06' W 093°17'0 0.0
2018-Jul-13 18:00N 30°06' W 093°17'0 0.0
2018-Jul-13 17:30N 30°06' W 093°17'0 0.0
2018-Jul-13 17:00N 30°06' W 093°17'0 0.0
2018-Jul-13 16:30N 30°06' W 093°17'0 0.0
2018-Jul-13 16:00N 30°06' W 093°17'0 0.0
2018-Jul-13 15:30N 30°06' W 093°17'0 0.0
2018-Jul-13 15:00N 30°06' W 093°17'0 0.0
2018-Jul-13 14:00N 30°06' W 093°17'0 0.0
2018-Jul-13 13:30N 30°06' W 093°17'0 0.0
2018-Jul-13 13:00N 30°06' W 093°17'0 0.0
2018-Jul-13 12:30N 30°06' W 093°17'0 0.0
2018-Jul-13 12:00N 30°06' W 093°17'0 0.0
2018-Jul-13 11:30N 30°06' W 093°17'0 0.0
2018-Jul-13 11:00N 30°06' W 093°17'0 0.0
2018-Jul-13 10:30N 30°06' W 093°17'0 0.0
2018-Jul-13 10:00N 30°06' W 093°17'0 0.0
2018-Jul-13 09:30N 30°06' W 093°17'0 0.0
2018-Jul-13 09:00N 30°06' W 093°17'0 0.0
2018-Jul-13 08:30N 30°06' W 093°17'0 0.0
2018-Jul-13 07:59N 30°06' W 093°17'0 0.0
2018-Jul-13 07:30N 30°06' W 093°17'0 0.0
2018-Jul-13 07:00N 30°06' W 093°17'0 0.0
2018-Jul-13 06:30N 30°06' W 093°17'0 0.0
2018-Jul-13 06:00N 30°06' W 093°17'0 0.0
2018-Jul-13 05:30N 30°06' W 093°17'0 0.0
2018-Jul-13 05:00N 30°06' W 093°17'0 0.0
2018-Jul-13 04:30N 30°06' W 093°17'0 0.0
2018-Jul-13 04:00N 30°06' W 093°17'0 0.0
2018-Jul-13 03:30N 30°06' W 093°17'0 0.0
2018-Jul-13 03:00N 30°06' W 093°17'0 0.0
2018-Jul-13 02:30N 30°06' W 093°17'0 0.0
2018-Jul-13 02:00N 30°06' W 093°17'0 0.0
2018-Jul-13 01:30N 30°06' W 093°17'0 0.0
2018-Jul-13 01:00N 30°06' W 093°17'0 0.0
2018-Jul-13 00:30N 30°06' W 093°17'0 0.0
2018-Jul-13 00:00N 30°06' W 093°17'  

Dump ship's entire track history